aviador You're here:

YBWX Decoded Metar

in
Report Time2017-10-23 05:00:00
UTC Time2017-10-23 05:50:06
Flight Rules unknown UNKNOWN
Wind230° at 16 kt
W.Decomp.*RWY 21: 15.0 kt HW 5.5 kt RCW
W.Rank230° ranks 3
Current wind is above 230° avg. (12.0)
VisibilityN/A
Phenomena:N/A
Clouds:N/A
Expected CloudBase > 5,600 ft AGL from Temp-Dew spread
CeilingNone
Temp31°C
Dew Point17°C (43% RH)
Heat Index31.4°C
AAT27.6°C
QNH1010 hPa
Raw Report
METAR YBWX 230500Z AUTO 23016KT //// // ////// 31/17 Q1010=

Extra information for YBWX:More info

Social comments